SILO ALERT LOG


Silo ID Alert Type Alert Message Silo Type Points Depth (mm) Strength Temperature (°C) Humidity (%) Height (mm) Volume (㎥) Weight (t) Flag Time
WJWJR05 Humidity 습도센서 측정값이 80% 초과 48 7840 2459 27.4 88.4 -120 -13.572 0 0 2026-08-03 09:25:42.000
WJWJR01 Humidity 습도센서 측정값이 80% 초과 76 7720 1060 25.4 88 -80 -9.048 0 0 2026-08-03 05:26:00.000
WJWJR05 Humidity 습도센서 측정값이 80% 초과 56 7870 2489 26.1 84.2 -150 -16.965 0 0 2026-08-03 05:25:47.000
WJWJR01 Humidity 습도센서 측정값이 80% 초과 77 7650 1062 27 84.3 -10 -1.131 0 0 2026-08-03 01:25:55.000
WJWJR05 Humidity 습도센서 측정값이 80% 초과 56 7840 2481 27.7 80.4 -120 -13.572 0 0 2026-08-03 01:25:43.000
WJWJR01 Humidity 습도센서 측정값이 80% 초과 84 7680 1034 27.9 90.5 -40 -4.524 0 0 2026-08-02 09:26:00.000
WJWJR05 Humidity 습도센서 측정값이 80% 초과 58 8160 2414 27.5 88.8 -440 -49.763 0 0 2026-08-02 09:25:44.000
WJWJR01 Humidity 습도센서 측정값이 80% 초과 84 7680 1044 25.6 88.4 -40 -4.524 0 0 2026-08-02 05:26:04.000
WJWJR05 Humidity 습도센서 측정값이 80% 초과 59 7780 2421 26.1 84.8 -60 -6.786 0 0 2026-08-02 05:25:46.000
WJWJR01 Humidity 습도센서 측정값이 80% 초과 76 7690 1064 27 85.1 -50 -5.655 0 0 2026-08-02 01:26:04.000
WJWJR05 Humidity 습도센서 측정값이 80% 초과 59 7770 2494 27.7 81.4 -49 -5.655 0 0 2026-08-02 01:25:45.000
WJWJR01 Humidity 습도센서 측정값이 80% 초과 76 7670 1047 27.7 90.9 -30 -3.393 0 0 2026-08-01 09:26:03.000
WJWJR05 Humidity 습도센서 측정값이 80% 초과 47 7830 2447 27.5 89.5 -110 -12.441 0 0 2026-08-01 09:25:41.000
WJWJR01 Humidity 습도센서 측정값이 80% 초과 84 7680 1057 25.5 88.4 -40 -4.524 0 0 2026-08-01 05:26:03.000
WJWJR05 Humidity 습도센서 측정값이 80% 초과 55 7830 2457 26.1 84.6 -110 -12.441 0 0 2026-08-01 05:25:44.000
WJWJR01 Humidity 습도센서 측정값이 80% 초과 82 7690 1047 26.6 85 -50 -5.655 0 0 2026-08-01 01:26:03.000
WJWJR05 Humidity 습도센서 측정값이 80% 초과 59 7410 2527 27.3 80.9 309 35.06 22.165 0 2026-08-01 01:25:44.000
WJWJR01 Humidity 습도센서 측정값이 80% 초과 83 7650 1076 30.4 84.5 -10 -1.131 0 0 2026-07-31 13:25:57.000
WJWJR05 Humidity 습도센서 측정값이 80% 초과 58 7830 2491 30.1 81.7 -110 -12.441 0 0 2026-07-31 13:25:49.000
WJWJR01 Humidity 습도센서 측정값이 80% 초과 72 7720 1036 25.6 90.4 -80 -9.048 0 0 2026-07-31 09:26:02.000

[첫 페이지] [9] [10] [11] [12] 13 [14] [15] [16] [17] [마지막 페이지]